createdAt,value
2019-03-13T00:00:23.277Z,981.3
2019-03-13T00:01:23.801Z,981.5
2019-03-13T00:02:23.263Z,981.43
2019-03-13T00:03:23.256Z,981.59
2019-03-13T00:04:23.252Z,981.68
2019-03-13T00:05:23.347Z,981.63
2019-03-13T00:06:23.252Z,981.86
2019-03-13T00:07:23.240Z,981.63
2019-03-13T00:08:23.229Z,981.68
2019-03-13T00:09:23.241Z,981.69
2019-03-13T00:10:23.228Z,981.73
2019-03-13T00:11:23.221Z,981.67
2019-03-13T00:12:23.213Z,981.81
2019-03-13T00:13:23.203Z,981.9
2019-03-13T00:14:23.201Z,981.85
2019-03-13T00:15:23.192Z,981.99
2019-03-13T00:16:23.183Z,982.06
2019-03-13T00:17:23.179Z,982.07
2019-03-13T00:18:23.174Z,982.03
2019-03-13T00:19:23.170Z,982.09
2019-03-13T00:20:23.170Z,982.26
2019-03-13T00:21:23.158Z,982.47
2019-03-13T00:22:23.152Z,982.32
2019-03-13T00:23:23.145Z,982.4
2019-03-13T00:24:23.138Z,982.5
2019-03-13T00:25:23.132Z,982.61
2019-03-13T00:26:23.130Z,982.73
2019-03-13T00:27:23.124Z,982.89
2019-03-13T00:28:23.148Z,982.84
2019-03-13T00:29:23.111Z,982.87
2019-03-13T00:30:23.112Z,982.93
2019-03-13T00:31:23.100Z,983.09
2019-03-13T00:32:23.089Z,983.09
2019-03-13T00:33:23.086Z,983.17
2019-03-13T00:34:23.078Z,983.01
2019-03-13T00:35:23.081Z,983.25
2019-03-13T00:36:23.122Z,983.23
2019-03-13T00:37:23.059Z,983.22
2019-03-13T00:38:23.053Z,983.45
2019-03-13T00:39:23.052Z,983.11
2019-03-13T00:40:23.044Z,983.29
2019-03-13T00:41:23.037Z,983.28
2019-03-13T00:42:23.029Z,983.43
2019-03-13T00:43:23.024Z,983.43
2019-03-13T00:44:23.017Z,983.53
2019-03-13T00:45:23.006Z,983.58
2019-03-13T00:46:23.000Z,983.53
2019-03-13T00:47:22.998Z,983.65
2019-03-13T00:48:22.987Z,983.7
2019-03-13T00:49:22.980Z,983.81
2019-03-13T00:50:22.982Z,983.86
2019-03-13T00:51:22.985Z,984.02
2019-03-13T00:52:22.959Z,984.07
2019-03-13T00:53:22.954Z,984.05
2019-03-13T00:54:22.944Z,984.17
2019-03-13T00:55:22.938Z,984.19
2019-03-13T00:56:22.932Z,984.25
2019-03-13T00:57:22.926Z,984.27
2019-03-13T00:58:25.292Z,984.28
2019-03-13T00:59:22.909Z,984.27
2019-03-13T01:00:22.920Z,984.26
2019-03-13T01:01:22.899Z,984.14
2019-03-13T01:02:22.905Z,984.25
2019-03-13T01:03:22.887Z,984.33
2019-03-13T01:04:22.878Z,984.5
2019-03-13T01:05:22.911Z,984.62
2019-03-13T01:06:22.861Z,984.59
2019-03-13T01:07:22.856Z,984.7
2019-03-13T01:08:22.854Z,984.73
2019-03-13T01:09:22.858Z,984.79
2019-03-13T01:10:22.839Z,984.77
2019-03-13T01:11:22.822Z,984.81
2019-03-13T01:12:22.823Z,984.89
2019-03-13T01:13:22.810Z,984.78
2019-03-13T01:14:22.806Z,984.74
2019-03-13T01:15:22.800Z,984.87
2019-03-13T01:16:22.799Z,984.81
2019-03-13T01:17:22.779Z,984.89
2019-03-13T01:18:22.768Z,984.85
2019-03-13T01:19:22.770Z,984.82
2019-03-13T01:20:22.756Z,984.88
2019-03-13T01:21:22.746Z,984.89
2019-03-13T01:22:22.743Z,984.94
2019-03-13T01:23:22.744Z,984.99
2019-03-13T01:24:22.725Z,985.32
2019-03-13T01:25:22.720Z,985.23
2019-03-13T01:26:22.716Z,985.45
2019-03-13T01:27:22.709Z,985.38
2019-03-13T01:28:22.707Z,985.45
2019-03-13T01:29:22.711Z,985.37
2019-03-13T01:30:22.696Z,985.44
2019-03-13T01:31:22.683Z,985.42
2019-03-13T01:32:22.673Z,985.46
2019-03-13T01:33:22.670Z,985.5
2019-03-13T01:34:22.663Z,985.52
2019-03-13T01:35:22.652Z,985.5
2019-03-13T01:36:22.640Z,985.54
2019-03-13T01:37:22.645Z,985.74
2019-03-13T01:38:22.615Z,985.6
2019-03-13T01:39:22.619Z,985.82
2019-03-13T01:40:22.629Z,985.79
2019-03-13T01:41:22.601Z,985.9
2019-03-13T01:42:22.605Z,985.94
2019-03-13T01:43:22.592Z,985.87
2019-03-13T01:44:22.566Z,985.85
2019-03-13T01:45:22.580Z,985.72
2019-03-13T01:46:22.559Z,985.77
2019-03-13T01:47:22.555Z,985.71
2019-03-13T01:48:22.545Z,985.74
2019-03-13T01:49:22.536Z,985.74
2019-03-13T01:50:22.533Z,985.7
2019-03-13T01:51:22.531Z,985.65
2019-03-13T01:52:22.508Z,985.74
2019-03-13T01:53:22.502Z,985.67
2019-03-13T01:54:22.491Z,985.73
2019-03-13T01:55:22.484Z,985.75
2019-03-13T01:56:22.475Z,985.76
2019-03-13T01:57:22.467Z,985.78
2019-03-13T14:02:57.001Z,986.05
2019-03-13T14:03:56.956Z,986.05
2019-03-13T14:04:56.950Z,986.06
2019-03-13T14:05:56.948Z,986.02
2019-03-13T14:06:56.940Z,986.01
2019-03-13T14:07:56.954Z,986
2019-03-13T14:08:56.925Z,985.95
2019-03-13T14:09:56.919Z,986.04
2019-03-13T14:10:56.913Z,986.04
2019-03-13T14:11:56.906Z,986.18
2019-03-13T14:12:58.512Z,986.04
2019-03-13T14:13:56.895Z,986.09
2019-03-13T14:14:56.897Z,986
2019-03-13T14:15:56.886Z,985.95
2019-03-13T14:16:56.961Z,985.98
2019-03-13T14:17:59.829Z,985.94
2019-03-13T14:18:56.865Z,985.87
2019-03-13T14:19:56.859Z,985.84
2019-03-13T14:20:56.871Z,985.81
2019-03-13T14:21:56.850Z,985.86
2019-03-13T14:22:56.844Z,985.84
2019-03-13T14:23:56.841Z,985.77
2019-03-13T14:24:56.837Z,985.74
2019-03-13T14:25:56.827Z,985.77
2019-03-13T14:26:56.820Z,985.74
2019-03-13T14:27:56.815Z,985.76
2019-03-13T14:28:56.818Z,985.71
2019-03-13T14:29:56.804Z,985.69
2019-03-13T14:30:56.799Z,985.68
2019-03-13T14:31:56.796Z,985.62
2019-03-13T14:32:56.790Z,985.63
2019-03-13T14:33:56.783Z,985.71
2019-03-13T14:34:56.814Z,985.54
2019-03-13T14:35:56.775Z,985.54
2019-03-13T14:36:56.772Z,985.56
2019-03-13T14:37:56.765Z,985.61
2019-03-13T14:38:56.786Z,985.53
2019-03-13T14:39:56.756Z,985.52
2019-03-13T14:40:56.753Z,985.55
2019-03-13T14:41:56.751Z,985.53
2019-03-13T14:42:56.750Z,985.62
2019-03-13T14:43:56.736Z,985.45
2019-03-13T14:44:56.731Z,985.52
2019-03-13T14:45:56.727Z,985.4
2019-03-13T14:46:56.725Z,985.46
2019-03-13T14:47:56.714Z,985.47
2019-03-13T14:48:56.712Z,985.48
2019-03-13T14:49:56.711Z,985.45
2019-03-13T14:50:56.701Z,985.51
2019-03-13T14:51:56.701Z,985.48
2019-03-13T14:52:56.706Z,985.45
2019-03-13T14:53:56.695Z,985.35
2019-03-13T14:54:56.679Z,985.35
2019-03-13T14:55:56.694Z,985.4
2019-03-13T14:56:56.672Z,985.16
2019-03-13T14:57:56.667Z,985.21
2019-03-13T14:58:56.668Z,985.21
2019-03-13T14:59:56.673Z,985.2
2019-03-13T15:00:56.651Z,985.33
2019-03-13T15:01:56.646Z,985.26
2019-03-13T15:02:56.642Z,985.27
2019-03-13T15:03:56.642Z,985.35
2019-03-13T15:04:56.633Z,985.33
2019-03-13T15:05:56.638Z,985.28
2019-03-13T15:06:56.630Z,985.19
2019-03-13T15:07:56.618Z,985.26
2019-03-13T15:08:56.612Z,985.32
2019-03-13T15:09:57.020Z,985.36
2019-03-13T15:10:56.602Z,985.33
2019-03-13T15:11:56.601Z,985.37
2019-03-13T15:12:56.596Z,985.27
2019-03-13T15:13:56.586Z,985.29
2019-03-13T15:14:56.593Z,985.36
2019-03-13T15:15:56.578Z,985.36
2019-03-13T15:16:56.574Z,985.19
2019-03-13T15:17:56.566Z,985.45
2019-03-13T15:18:56.569Z,985.5
2019-03-13T15:19:56.557Z,985.52
2019-03-13T15:20:56.550Z,985.4
2019-03-13T15:21:56.547Z,985.39
2019-03-13T15:22:56.541Z,985.52
2019-03-13T15:23:56.536Z,985.42
2019-03-13T15:24:56.532Z,985.44
2019-03-13T15:25:56.587Z,985.43
2019-03-13T15:26:56.521Z,985.43
2019-03-13T15:27:56.515Z,985.34
2019-03-13T15:28:56.511Z,985.48
2019-03-13T15:29:56.503Z,985.35
2019-03-13T15:30:56.505Z,985.4
2019-03-13T15:31:56.496Z,985.32
2019-03-13T15:32:56.491Z,985.28
2019-03-13T15:33:58.390Z,985.29
2019-03-13T15:34:56.478Z,985.19
2019-03-13T15:35:56.476Z,985.21
2019-03-13T15:36:56.482Z,985.29
2019-03-13T15:37:56.464Z,985.31
2019-03-13T15:38:56.467Z,985.18
2019-03-13T15:39:56.451Z,985.24
2019-03-13T15:40:57.928Z,985.32
2019-03-13T15:41:56.442Z,985.31
2019-03-13T15:42:56.437Z,985.25
2019-03-13T15:43:56.444Z,985.27
2019-03-13T15:44:56.427Z,985.24
2019-03-13T15:45:56.424Z,985.3
2019-03-13T15:46:56.413Z,985.31
2019-03-13T15:47:56.409Z,985.23
2019-03-13T15:48:56.405Z,985.23
2019-03-13T15:49:56.403Z,985.21
2019-03-13T15:50:56.395Z,985.19
2019-03-13T15:51:56.387Z,985.29
2019-03-13T15:52:56.388Z,985.25
2019-03-13T15:53:56.384Z,985.25
2019-03-13T15:54:56.394Z,985.27
2019-03-13T15:55:56.383Z,985.29
2019-03-13T15:56:56.395Z,985.27
2019-03-13T15:57:56.364Z,985.28
2019-03-13T15:58:56.379Z,985.17
2019-03-13T15:59:56.361Z,985.16
2019-03-13T16:00:56.363Z,985.24
2019-03-13T16:01:56.346Z,985.26
2019-03-13T16:02:56.359Z,985.34
2019-03-13T16:03:56.329Z,985.22
2019-03-13T16:04:56.318Z,985.29
2019-03-13T16:05:56.314Z,985.22
2019-03-13T16:06:56.309Z,985.13
2019-03-13T16:07:56.310Z,985.14
2019-03-13T16:08:56.304Z,985.06
2019-03-13T16:09:56.324Z,985.16
2019-03-13T16:10:56.291Z,985.06
2019-03-13T16:11:56.290Z,985.09
2019-03-13T16:12:56.280Z,985.12
2019-03-13T16:13:56.283Z,985.14
2019-03-13T16:14:56.367Z,985.1
2019-03-13T16:15:56.290Z,985.11
2019-03-13T16:16:56.254Z,985.11
2019-03-13T16:17:56.274Z,985.2
2019-03-13T16:18:56.246Z,985.08
2019-03-13T16:19:56.247Z,985.09
2019-03-13T16:20:56.252Z,985.09
2019-03-13T16:21:56.231Z,985.15
2019-03-13T16:22:56.220Z,985.07
2019-03-13T16:23:56.219Z,985.15
2019-03-13T16:24:56.212Z,985.13
2019-03-13T16:25:56.216Z,985.09
2019-03-13T16:26:56.202Z,985.14
2019-03-13T16:27:56.195Z,985.1
2019-03-13T16:28:56.187Z,984.94
2019-03-13T16:29:56.180Z,985.02
2019-03-13T16:30:56.175Z,984.98
2019-03-13T16:31:56.173Z,985.03
2019-03-13T16:32:56.164Z,984.99
2019-03-13T16:33:56.165Z,984.94
2019-03-13T16:34:56.161Z,984.99
2019-03-13T16:35:56.152Z,984.95
2019-03-13T16:36:56.139Z,984.96
2019-03-13T16:37:56.137Z,985.02
2019-03-13T16:38:56.138Z,985.04
2019-03-13T16:39:56.128Z,984.99
2019-03-13T16:40:56.124Z,985.07
2019-03-13T16:41:56.140Z,985.05
2019-03-13T16:42:56.151Z,985.06
2019-03-13T16:43:56.116Z,985.02
2019-03-13T16:44:56.100Z,985.04
2019-03-13T16:45:56.125Z,985
2019-03-13T16:46:56.094Z,984.95
2019-03-13T16:47:56.072Z,984.94
2019-03-13T16:48:56.070Z,984.9
2019-03-13T16:49:56.238Z,985.02
2019-03-13T16:50:56.054Z,984.94
2019-03-13T16:51:56.054Z,984.95
2019-03-13T16:52:56.045Z,984.95
2019-03-13T16:53:56.040Z,984.92
2019-03-13T16:54:58.265Z,984.91
2019-03-13T16:55:56.063Z,984.9
2019-03-13T16:56:56.025Z,984.9
2019-03-13T16:57:56.010Z,984.96
2019-03-13T16:58:56.006Z,984.98
2019-03-13T17:00:00.277Z,984.93
2019-03-13T17:00:55.998Z,984.95
2019-03-13T17:01:55.990Z,984.96
2019-03-13T17:02:55.983Z,984.95
2019-03-13T17:03:55.990Z,984.96
2019-03-13T17:04:58.425Z,985.04
2019-03-13T17:05:55.965Z,985.07
2019-03-13T17:06:55.953Z,985.1
2019-03-13T17:07:55.958Z,985.19
2019-03-13T17:08:55.935Z,985.15
2019-03-13T17:09:55.932Z,985.13
2019-03-13T17:10:55.927Z,985.15
2019-03-13T17:11:55.953Z,985.21
2019-03-13T17:12:55.913Z,985.12
2019-03-13T17:13:55.913Z,985.15
2019-03-13T17:14:55.904Z,985.09
2019-03-13T17:15:55.903Z,985.28
2019-03-13T17:16:55.885Z,985.25
2019-03-13T17:17:55.882Z,985.1
2019-03-13T17:18:55.871Z,985.16
2019-03-13T17:19:55.882Z,985.22
2019-03-13T17:20:55.860Z,985.19
2019-03-13T17:21:55.855Z,985.17
2019-03-13T17:22:55.847Z,985.23
2019-03-13T17:23:55.849Z,985.23
2019-03-13T17:24:55.836Z,985.22
2019-03-13T17:25:55.824Z,985.16
2019-03-13T17:26:55.819Z,985.19
2019-03-13T17:27:55.812Z,985.1
2019-03-13T17:28:55.804Z,985.11
2019-03-13T17:29:55.801Z,985.08
2019-03-13T17:30:55.794Z,985.14
2019-03-13T17:31:55.794Z,985.05
2019-03-13T17:32:55.789Z,985.11
2019-03-13T17:33:55.771Z,985.1
2019-03-13T17:34:55.763Z,985.06
2019-03-13T17:35:55.755Z,985.06
2019-03-13T17:36:55.749Z,985.06
2019-03-13T17:37:55.744Z,985.03
2019-03-13T17:38:55.734Z,985.03
2019-03-13T17:39:55.733Z,984.95
2019-03-13T17:40:55.729Z,984.94
2019-03-13T17:41:55.714Z,984.85
2019-03-13T17:42:55.709Z,984.85
2019-03-13T17:43:55.711Z,984.77
2019-03-13T17:44:55.698Z,984.83
2019-03-13T17:45:55.687Z,984.79
2019-03-13T17:46:55.680Z,984.84
2019-03-13T17:47:55.673Z,984.73
2019-03-13T17:48:55.666Z,984.82
2019-03-13T17:49:55.658Z,984.83
2019-03-13T17:50:55.654Z,984.8
2019-03-13T17:51:55.643Z,984.87
2019-03-13T17:52:55.653Z,984.8
2019-03-13T17:53:55.627Z,984.8
2019-03-13T17:54:55.621Z,984.76
2019-03-13T17:55:55.616Z,984.76
2019-03-13T17:56:55.609Z,984.83
2019-03-13T17:57:55.602Z,984.81
2019-03-13T17:58:55.596Z,984.84
2019-03-13T17:59:55.585Z,984.85
2019-03-13T18:00:55.578Z,984.83
2019-03-13T18:01:55.570Z,984.85
2019-03-13T18:02:55.565Z,984.77
2019-03-13T18:03:55.559Z,984.91
2019-03-13T18:04:55.550Z,984.86
2019-03-13T18:05:55.548Z,984.9
2019-03-13T18:06:55.553Z,984.89
2019-03-13T18:07:55.530Z,984.84
2019-03-13T18:08:55.522Z,984.82
2019-03-13T18:09:55.520Z,984.97
2019-03-13T18:10:55.523Z,984.91
2019-03-13T18:11:55.501Z,984.88
2019-03-13T18:12:55.495Z,984.91
2019-03-13T18:13:55.534Z,984.94
2019-03-13T18:14:55.482Z,984.9
2019-03-13T18:15:55.473Z,984.9
2019-03-13T18:16:55.468Z,984.91
2019-03-13T18:17:55.469Z,984.89
2019-03-13T18:18:55.454Z,984.95
2019-03-13T18:19:55.452Z,984.97
2019-03-13T18:20:55.447Z,985.06
2019-03-13T18:21:55.431Z,984.98
2019-03-13T18:22:55.433Z,984.91
2019-03-13T18:33:44.574Z,984.92
2019-03-13T18:34:44.561Z,985.04
2019-03-13T18:35:44.554Z,985.01
2019-03-13T18:36:44.537Z,985.07
2019-03-13T18:37:44.531Z,985.02
2019-03-13T18:38:44.578Z,985.13
2019-03-13T18:39:44.512Z,984.98
2019-03-13T18:40:44.498Z,985.16
2019-03-13T18:41:44.495Z,985.16
2019-03-13T18:42:44.483Z,985.07
2019-03-13T18:43:44.473Z,985.14
2019-03-13T18:44:44.486Z,985.22
2019-03-13T18:45:44.465Z,985.16
2019-03-13T18:46:44.445Z,985.24
2019-03-13T18:47:44.437Z,985.34
2019-03-13T18:48:44.428Z,985.31
2019-03-13T18:49:44.428Z,985.29
2019-03-13T18:50:44.421Z,985.31
2019-03-13T18:51:44.443Z,985.38
2019-03-13T18:52:44.395Z,985.4
2019-03-13T18:53:44.450Z,985.45
2019-03-13T18:54:44.379Z,985.44
2019-03-13T18:55:44.372Z,985.45
2019-03-13T18:56:44.371Z,985.48
2019-03-13T18:57:44.356Z,985.51
2019-03-13T18:58:44.379Z,985.47
2019-03-13T18:59:44.339Z,985.59
2019-03-13T19:00:44.344Z,985.49
2019-03-13T19:01:44.327Z,985.53
2019-03-13T19:02:44.320Z,985.57
2019-03-13T19:03:44.310Z,985.55
2019-03-13T19:04:44.305Z,985.62
2019-03-13T19:05:44.298Z,985.62
2019-03-13T19:06:44.291Z,985.51
2019-03-13T19:07:44.286Z,985.69
2019-03-13T19:08:44.271Z,985.71
2019-03-13T19:09:44.265Z,985.72
2019-03-13T19:10:44.254Z,985.78
2019-03-13T19:11:44.251Z,985.74
2019-03-13T19:12:44.237Z,985.75
2019-03-13T19:13:44.237Z,985.79
2019-03-13T19:14:44.225Z,985.68
2019-03-13T19:15:44.215Z,985.68
2019-03-13T19:16:44.208Z,985.68
2019-03-13T19:17:44.200Z,985.64
2019-03-13T19:18:44.187Z,985.57
2019-03-13T19:19:44.186Z,985.65
2019-03-13T19:20:44.185Z,985.64
2019-03-13T19:21:44.166Z,985.66
2019-03-13T19:22:44.162Z,985.59
2019-03-13T19:23:44.152Z,985.69
2019-03-13T19:24:44.146Z,985.63
2019-03-13T19:25:44.138Z,985.72
2019-03-13T19:26:44.131Z,985.66
2019-03-13T19:27:44.133Z,985.64
2019-03-13T19:28:44.112Z,985.69
2019-03-13T19:29:44.103Z,985.66
2019-03-13T19:30:44.132Z,985.72
2019-03-13T19:31:44.087Z,985.72
2019-03-13T19:32:44.092Z,985.71
2019-03-13T19:33:44.075Z,985.8
2019-03-13T19:34:44.067Z,985.76
2019-03-13T19:35:44.059Z,985.72
2019-03-13T19:36:44.050Z,985.77
2019-03-13T19:37:44.044Z,985.77
2019-03-13T19:38:44.034Z,985.84
2019-03-13T19:39:44.024Z,985.83
2019-03-13T19:40:44.020Z,985.73
2019-03-13T19:41:44.007Z,985.78
2019-03-13T19:42:44.001Z,985.77
2019-03-13T19:43:43.991Z,985.8
2019-03-13T19:44:43.985Z,985.87
2019-03-13T19:45:43.982Z,985.95
2019-03-13T19:46:43.974Z,985.87
2019-03-13T19:47:43.958Z,985.88
2019-03-13T19:48:43.955Z,986
2019-03-13T19:49:43.942Z,986.05
2019-03-13T19:50:43.937Z,986.03
2019-03-13T19:51:43.972Z,986.09
2019-03-13T19:52:43.925Z,986.15
2019-03-13T19:53:43.915Z,986.15
2019-03-13T19:54:43.942Z,986.16
2019-03-13T19:55:43.899Z,986.18
2019-03-13T19:56:43.891Z,986.14
2019-03-13T19:57:43.876Z,986.12
2019-03-13T19:58:43.871Z,986.15
2019-03-13T19:59:43.864Z,986.2
2019-03-13T20:00:43.855Z,986.12
2019-03-13T20:01:43.847Z,986.1
2019-03-13T20:02:43.837Z,986.04
2019-03-13T20:03:54.541Z,986.03
2019-03-13T20:04:47.436Z,986.02
2019-03-13T20:05:45.563Z,986.02
2019-03-13T20:06:43.804Z,986.01
2019-03-13T20:07:43.919Z,985.95
2019-03-13T20:08:43.801Z,985.91
2019-03-13T20:09:43.834Z,985.88
2019-03-13T20:10:43.780Z,985.89
2019-03-13T20:11:43.765Z,985.97
2019-03-13T20:12:43.759Z,985.89
2019-03-13T20:13:43.747Z,985.96
2019-03-13T20:14:43.744Z,985.88
2019-03-13T20:15:43.730Z,985.87
2019-03-13T20:16:46.477Z,985.81
2019-03-13T20:17:43.720Z,985.81
2019-03-13T20:18:43.711Z,985.79
2019-03-13T20:19:43.699Z,985.82
2019-03-13T20:20:43.700Z,985.95
2019-03-13T20:21:43.683Z,985.94
2019-03-13T20:22:43.673Z,985.93
2019-03-13T20:23:43.665Z,985.83
2019-03-13T20:24:43.731Z,985.83
2019-03-13T20:25:43.659Z,985.91
2019-03-13T20:26:43.653Z,985.88
2019-03-13T20:27:43.640Z,985.88
2019-03-13T20:28:46.038Z,985.89
2019-03-13T20:29:43.617Z,985.89
2019-03-13T20:30:43.621Z,985.91
2019-03-13T20:31:43.601Z,985.91
2019-03-13T20:32:43.653Z,985.94
2019-03-13T20:33:43.619Z,985.89
2019-03-13T20:34:43.591Z,985.92
2019-03-13T20:35:43.574Z,986.02
2019-03-13T20:36:43.559Z,986.06
2019-03-13T20:37:43.551Z,986.01
2019-03-13T20:38:43.544Z,986.07
2019-03-13T20:39:43.596Z,986.09
2019-03-13T20:40:43.529Z,986.09
2019-03-13T20:41:43.518Z,986.09
2019-03-13T20:42:43.510Z,986.04
2019-03-13T20:43:45.752Z,986.05
2019-03-13T20:44:43.495Z,986.09
2019-03-13T20:45:43.484Z,986.04
2019-03-13T20:46:43.479Z,986.04
2019-03-13T20:47:43.471Z,986.01
2019-03-13T20:48:43.463Z,986.03
2019-03-13T20:49:43.577Z,985.99
2019-03-13T20:50:43.450Z,985.97
2019-03-13T20:51:43.445Z,985.99
2019-03-13T20:52:45.714Z,985.99
2019-03-13T20:53:43.495Z,985.95
2019-03-13T20:54:43.463Z,985.97
2019-03-13T20:55:43.426Z,985.96
2019-03-13T20:56:43.395Z,985.95
2019-03-13T20:57:43.388Z,985.93
2019-03-13T20:58:43.404Z,985.95
2019-03-13T20:59:43.387Z,985.96
2019-03-13T21:00:43.364Z,986.01
2019-03-13T21:01:43.359Z,985.96
2019-03-13T21:02:43.359Z,986.03
2019-03-13T21:03:45.642Z,986.08
2019-03-13T21:04:43.336Z,986.04
2019-03-13T21:05:43.334Z,986.04
2019-03-13T21:06:43.321Z,986.03
2019-03-13T21:07:43.308Z,985.98
2019-03-13T21:08:43.300Z,986
2019-03-13T21:09:43.296Z,985.97
2019-03-13T21:10:43.300Z,985.99
2019-03-13T21:11:43.279Z,986.08
2019-03-13T21:12:43.277Z,986.08
2019-03-13T21:13:43.263Z,986.12
2019-03-13T21:14:43.256Z,986.15
2019-03-13T21:15:43.799Z,986.06
2019-03-13T21:16:43.244Z,986.03
2019-03-13T21:17:43.238Z,985.95
2019-03-13T21:18:43.239Z,986.01
2019-03-13T21:19:43.219Z,985.98
2019-03-13T21:20:43.212Z,986.03
2019-03-13T21:21:43.199Z,986.05
2019-03-13T21:22:43.206Z,986.1
2019-03-13T21:23:43.199Z,986.07
2019-03-13T21:24:43.174Z,986.1
2019-03-13T21:25:43.169Z,986.11
2019-03-13T21:26:43.165Z,986.07
2019-03-13T21:27:43.157Z,986.02
2019-03-13T21:28:43.148Z,986.02
2019-03-13T21:29:43.139Z,986.06
2019-03-13T21:30:43.130Z,986.03
2019-03-13T21:31:43.122Z,986.02
2019-03-13T21:32:43.111Z,986.02
2019-03-13T21:33:43.120Z,986.02
2019-03-13T21:34:43.111Z,986.07
2019-03-13T21:35:43.100Z,986.08
2019-03-13T21:36:43.080Z,986.13
2019-03-13T21:37:43.090Z,986.15
2019-03-13T21:38:43.066Z,986.14
2019-03-13T21:39:43.077Z,986.13
2019-03-13T21:40:43.048Z,986.23
2019-03-13T21:41:43.049Z,986.27
2019-03-13T21:42:43.037Z,986.27
2019-03-13T21:43:43.028Z,986.36
2019-03-13T21:44:43.018Z,986.37
2019-03-13T21:45:43.013Z,986.42
2019-03-13T21:46:43.056Z,986.42
2019-03-13T21:47:43.051Z,986.38
2019-03-13T21:48:43.002Z,986.46
2019-03-13T21:49:42.978Z,986.44
2019-03-13T21:50:42.970Z,986.49
2019-03-13T21:51:42.962Z,986.41
2019-03-13T21:52:42.952Z,986.4
2019-03-13T21:53:42.943Z,986.42
2019-03-13T21:54:42.935Z,986.47
2019-03-13T21:55:43.028Z,986.45
2019-03-13T21:56:42.919Z,986.46
2019-03-13T21:57:42.948Z,986.48
2019-03-13T21:58:42.906Z,986.59
2019-03-13T21:59:42.893Z,986.62
2019-03-13T22:00:42.901Z,986.61
2019-03-13T22:01:42.879Z,986.66
2019-03-13T22:02:42.873Z,986.66
2019-03-13T22:03:42.870Z,986.72
2019-03-13T22:04:42.856Z,986.7
2019-03-13T22:05:42.844Z,986.74
2019-03-13T22:06:42.835Z,986.75
2019-03-13T22:07:42.956Z,986.72
2019-03-13T22:08:42.816Z,986.71
2019-03-13T22:09:42.838Z,986.72
2019-03-13T22:10:42.800Z,986.77
2019-03-13T22:11:42.792Z,986.75
2019-03-13T22:12:42.782Z,986.76
2019-03-13T22:13:42.774Z,986.8
2019-03-13T22:14:42.781Z,986.8
2019-03-13T22:15:42.823Z,986.75
2019-03-13T22:16:42.754Z,986.71
2019-03-13T22:17:42.762Z,986.73
2019-03-13T22:18:42.732Z,986.79
2019-03-13T22:19:42.722Z,986.83
2019-03-13T22:20:42.717Z,986.86
2019-03-13T22:21:42.708Z,986.84
2019-03-13T22:22:42.704Z,986.77
2019-03-13T22:23:42.692Z,986.75
2019-03-13T22:24:42.700Z,986.76
2019-03-13T22:25:42.897Z,986.75
2019-03-13T22:26:42.738Z,986.81
2019-03-13T22:27:42.784Z,986.81
2019-03-13T22:28:42.774Z,986.79
2019-03-13T22:29:42.646Z,986.83
2019-03-13T22:30:42.633Z,986.88
2019-03-13T22:31:42.632Z,986.89
2019-03-13T22:32:42.632Z,986.87
2019-03-13T23:03:49.152Z,987.27
2019-03-13T23:04:49.048Z,987.17
2019-03-13T23:05:49.107Z,987.3
2019-03-13T23:06:49.042Z,987.24
2019-03-13T23:07:49.072Z,987.29
2019-03-13T23:08:49.017Z,987.28
2019-03-13T23:09:48.993Z,987.3
2019-03-13T23:10:48.973Z,987.29
2019-03-13T23:11:48.956Z,987.29
2019-03-13T23:12:48.946Z,987.29
2019-03-13T23:13:48.936Z,987.33
2019-03-13T23:14:48.923Z,987.33
2019-03-13T23:15:48.922Z,987.35
2019-03-13T23:16:48.903Z,987.43
2019-03-13T23:17:48.902Z,987.41
2019-03-13T23:18:48.884Z,987.4
2019-03-13T23:19:48.873Z,987.4
2019-03-13T23:20:48.863Z,987.42
2019-03-13T23:21:48.855Z,987.37
2019-03-13T23:22:48.842Z,987.37
2019-03-13T23:23:48.832Z,987.39
2019-03-13T23:24:48.825Z,987.4
2019-03-13T23:25:48.815Z,987.36
2019-03-13T23:26:48.810Z,987.43
2019-03-13T23:27:48.796Z,987.42
2019-03-13T23:28:48.795Z,987.52
2019-03-13T23:29:48.778Z,987.43
2019-03-13T23:30:48.774Z,987.46
2019-03-13T23:31:48.763Z,987.53
2019-03-13T23:32:48.760Z,987.45
2019-03-13T23:33:48.994Z,987.52
2019-03-13T23:34:48.750Z,987.53
2019-03-13T23:35:48.728Z,987.56
2019-03-13T23:36:48.727Z,987.56
2019-03-13T23:37:48.725Z,987.56
2019-03-13T23:38:48.702Z,987.61
2019-03-13T23:39:48.692Z,987.62
2019-03-13T23:40:48.683Z,987.62
2019-03-13T23:41:48.878Z,987.59
2019-03-13T23:42:48.695Z,987.62
2019-03-13T23:43:48.658Z,987.64
2019-03-13T23:44:48.648Z,987.7
2019-03-13T23:45:48.641Z,987.71
2019-03-13T23:46:48.657Z,987.62
2019-03-13T23:47:48.629Z,987.73
2019-03-13T23:48:48.635Z,987.65
2019-03-13T23:49:48.608Z,987.62
2019-03-13T23:50:48.601Z,987.7
2019-03-13T23:51:48.595Z,987.63
2019-03-13T23:52:48.592Z,987.59
2019-03-13T23:53:48.578Z,987.64
2019-03-13T23:54:48.579Z,987.62
2019-03-13T23:55:48.561Z,987.65
2019-03-13T23:56:48.566Z,987.57
2019-03-13T23:57:48.545Z,987.62
2019-03-13T23:58:48.536Z,987.62
2019-03-13T23:59:48.533Z,987.56
